Flight Track Log - Related Links

Times and Time Zones

All times are in EDT time to prevent confusion due to time zone crossing. See the SWA1165 flight status page for this flight to view local times or setup timezone preferences in your user account.


Time Position Orientation Groundspeed Altitude Reporting Facility
EDT Latitude Longitude Course Direction KTS MPH feet Rate Location/Type
Wed 06:21:38 PM 36.0700 -115.1703 206° Southwest 138 159 3,500  Level Los Angeles Center
Wed 06:22:20 PM 36.0394 -115.1883 206° Southwest 175 201 4,700 2,039 Climbing Los Angeles Center
Wed 06:23:21 PM 35.9956 -115.2453 226° Southwest 247 284 7,000 1,850 Climbing Los Angeles Center
Wed 06:24:20 PM 35.9525 -115.3033 228° Southwest 248 285 8,400 2,016 Climbing Los Angeles Center
Wed 06:25:23 PM 35.8753 -115.3136 186° South 270 311 11,100 2,688 Climbing Los Angeles Center
Wed 06:26:25 PM 35.7831 -115.3081 177° South 308 354 14,000 2,758 Climbing Los Angeles Center
Wed 06:27:27 PM 35.6853 -115.2994 176° South 345 397 16,800 2,661 Climbing Los Angeles Center
Wed 06:28:29 PM 35.6133 -115.3828 223° Southwest 354 407 19,500 2,758 Climbing Los Angeles Center
Wed 06:29:31 PM 35.5425 -115.4767 227° Southwest 366 421 22,500 2,806 Climbing Los Angeles Center
Wed 06:30:33 PM 35.4706 -115.5747 228° Southwest 382 440 25,300 2,661 Climbing Los Angeles Center
Wed 06:31:35 PM 35.3994 -115.6700 228° Southwest 377 434 28,000 1,306 Climbing Los Angeles Center
Wed 06:32:37 PM 35.3150 -115.7828 227° Southwest 375 432 28,000  Level Los Angeles Center
Wed 06:33:39 PM 35.2425 -115.8797 228° Southwest 382 440 28,000  Level Los Angeles Center
Wed 06:34:41 PM 35.1692 -115.9736 226° Southwest 382 440 28,000  Level Los Angeles Center
Wed 06:35:42 PM 35.0972 -116.0700 228° Southwest 383 441 28,000  Level Los Angeles Center
Wed 06:36:44 PM 35.0256 -116.1644 227° Southwest 381 438 28,000  Level Los Angeles Center
Wed 06:37:46 PM 34.9519 -116.2603 227° Southwest 384 442 28,000  Level Los Angeles Center
Wed 06:38:48 PM 34.8658 -116.3739 227° Southwest 381 438 28,000 -290 Level Los Angeles Center
Wed 06:39:50 PM 34.7908 -116.4686 226° Southwest 385 443 27,400 -1,161 Descending Los Angeles Center
Wed 06:40:52 PM 34.7217 -116.5531 225° Southwest 361 415 25,600 -1,742 Descending Los Angeles Center
Wed 06:41:54 PM 34.6564 -116.6342 226° Southwest 340 391 23,800 -1,742 Descending Los Angeles Center
Wed 06:42:56 PM 34.5908 -116.7144 225° Southwest 334 384 22,000 -1,742 Descending Los Angeles Center
Wed 06:43:58 PM 34.5242 -116.7958 225° Southwest 337 388 20,200 -1,694 Descending Los Angeles Center
Wed 06:45:00 PM 34.4589 -116.8750 225° Southwest 332 382 18,500 -1,935 Descending Los Angeles Center
Wed 06:46:02 PM 34.3831 -116.9686 226° Southwest 325 374 16,200 -1,774 Descending Los Angeles Center
Wed 06:48:06 PM 34.2625 -117.1106 224° Southwest 296 341 13,000 -1,032 Descending Los Angeles Center
Wed 06:49:08 PM 34.1817 -117.1050 177° South 296 341 13,000 -339 Level Los Angeles Center
Wed 06:50:10 PM 34.0900 -117.0772 166° South 294 338 12,300 -851 Descending Los Angeles Center
Wed 06:51:22 PM 34.0000 -117.0667 174° South 290 334 11,100 -1,000 Descending Southern California TRACON
Wed 06:52:28 PM 33.9500 -117.1500 234° Southwest 267 307 10,000 -524 Descending Southern California TRACON
Wed 06:53:28 PM 33.9167 -117.2333 244° Southwest 269 310 10,000  Level Southern California TRACON
Wed 06:54:28 PM 33.8833 -117.3167 244° Southwest 269 310 10,000 -316 Level Southern California TRACON
Wed 06:55:22 PM 33.8500 -117.3833 239° Southwest 268 308 9,400 -842 Descending Southern California TRACON
Wed 06:56:22 PM 33.8333 -117.4667 256° West 269 310 8,400 -700 Descending Southern California TRACON
Wed 06:57:22 PM 33.8000 -117.5333 239° Southwest 247 284 8,000 -532 Descending Southern California TRACON
Wed 06:58:26 PM 33.7758 -117.6014 247° West 229 264 7,300 -667 Descending Los Angeles Center
Wed 06:59:28 PM 33.7778 -117.6633 272° West 197 227 6,600 -1,024 Descending Los Angeles Center
Wed 07:00:29 PM 33.7844 -117.7156 279° West 164 189 5,200 -1,541 Descending Los Angeles Center
Wed 07:01:17 PM 33.7833 -117.7667 269° West 159 183 3,800 -1,526 Descending Southern California TRACON
Wed 07:02:23 PM 33.7667 -117.8167 248° West 162 186 2,300 -1,238 Descending Southern California TRACON
Wed 07:03:23 PM 33.7333 -117.8333 203° Southwest 139 160 1,200 -900 Descending Southern California TRACON
Wed 07:04:23 PM 33.7000 -117.8500 203° Southwest 130 150 500 -700 Descending Southern California TRACON
Wed 07:07:00 PM 33.6757 -117.8682 132° Southeast  Level Estimated

Login

Don't have an account? Register now (free) for customized features, flight alerts, and more!